sensor_id;sensor_type;location;lat;lon;timestamp;P1;durP1;ratioP1;P2;durP2;ratioP2
78169;SDS011;67412;49.892;14.490;2023-08-30T00:01:51;4.28;;;1.90;;
78169;SDS011;67412;49.892;14.490;2023-08-30T00:04:16;4.68;;;1.70;;
78169;SDS011;67412;49.892;14.490;2023-08-30T00:06:41;3.15;;;1.40;;
78169;SDS011;67412;49.892;14.490;2023-08-30T00:09:07;4.50;;;1.70;;
78169;SDS011;67412;49.892;14.490;2023-08-30T00:11:33;4.95;;;1.60;;
78169;SDS011;67412;49.892;14.490;2023-08-30T00:14:02;4.22;;;1.50;;
78169;SDS011;67412;49.892;14.490;2023-08-30T00:16:29;4.03;;;1.70;;
78169;SDS011;67412;49.892;14.490;2023-08-30T00:18:55;4.60;;;1.63;;
78169;SDS011;67412;49.892;14.490;2023-08-30T00:21:20;4.50;;;1.63;;
78169;SDS011;67412;49.892;14.490;2023-08-30T00:23:45;3.92;;;1.60;;
78169;SDS011;67412;49.892;14.490;2023-08-30T00:26:11;4.20;;;1.67;;
78169;SDS011;67412;49.892;14.490;2023-08-30T00:28:36;3.25;;;1.60;;
78169;SDS011;67412;49.892;14.490;2023-08-30T00:31:01;5.35;;;1.70;;
78169;SDS011;67412;49.892;14.490;2023-08-30T00:33:27;7.90;;;2.10;;
78169;SDS011;67412;49.892;14.490;2023-08-30T00:35:56;4.35;;;1.55;;
78169;SDS011;67412;49.892;14.490;2023-08-30T00:38:22;3.47;;;1.50;;
78169;SDS011;67412;49.892;14.490;2023-08-30T00:40:47;5.30;;;1.55;;
78169;SDS011;67412;49.892;14.490;2023-08-30T00:43:13;3.80;;;1.67;;
78169;SDS011;67412;49.892;14.490;2023-08-30T00:45:38;3.50;;;1.50;;
78169;SDS011;67412;49.892;14.490;2023-08-30T00:48:05;5.60;;;1.98;;
78169;SDS011;67412;49.892;14.490;2023-08-30T00:50:31;3.90;;;1.58;;
78169;SDS011;67412;49.892;14.490;2023-08-30T00:52:57;3.58;;;1.77;;
78169;SDS011;67412;49.892;14.490;2023-08-30T00:55:23;4.82;;;1.65;;
78169;SDS011;67412;49.892;14.490;2023-08-30T00:57:48;5.30;;;1.73;;
78169;SDS011;67412;49.892;14.490;2023-08-30T01:00:13;3.17;;;1.42;;
78169;SDS011;67412;49.892;14.490;2023-08-30T01:02:39;4.18;;;1.83;;
78169;SDS011;67412;49.892;14.490;2023-08-30T01:05:04;4.78;;;2.05;;
78169;SDS011;67412;49.892;14.490;2023-08-30T01:07:30;4.22;;;1.50;;
78169;SDS011;67412;49.892;14.490;2023-08-30T01:09:55;3.42;;;1.70;;
78169;SDS011;67412;49.892;14.490;2023-08-30T01:12:23;4.22;;;1.42;;
78169;SDS011;67412;49.892;14.490;2023-08-30T01:15:09;6.53;;;1.70;;
78169;SDS011;67412;49.892;14.490;2023-08-30T01:17:39;3.28;;;1.52;;
78169;SDS011;67412;49.892;14.490;2023-08-30T01:20:07;3.15;;;1.70;;
78169;SDS011;67412;49.892;14.490;2023-08-30T01:28:45;2.92;;;1.17;;
78169;SDS011;67412;49.892;14.490;2023-08-30T01:31:11;4.43;;;1.58;;
78169;SDS011;67412;49.892;14.490;2023-08-30T01:36:04;3.38;;;1.50;;
78169;SDS011;67412;49.892;14.490;2023-08-30T01:38:31;3.00;;;1.55;;
78169;SDS011;67412;49.892;14.490;2023-08-30T01:40:57;4.40;;;1.90;;
78169;SDS011;67412;49.892;14.490;2023-08-30T01:43:25;3.30;;;1.40;;
78169;SDS011;67412;49.892;14.490;2023-08-30T01:45:51;3.92;;;1.60;;
78169;SDS011;67412;49.892;14.490;2023-08-30T01:48:17;4.45;;;1.65;;
78169;SDS011;67412;49.892;14.490;2023-08-30T01:50:44;2.25;;;1.25;;
78169;SDS011;67412;49.892;14.490;2023-08-30T01:55:36;3.47;;;1.30;;
78169;SDS011;67412;49.892;14.490;2023-08-30T01:58:03;5.63;;;1.60;;
78169;SDS011;67412;49.892;14.490;2023-08-30T02:00:28;2.85;;;1.42;;
78169;SDS011;67412;49.892;14.490;2023-08-30T02:02:54;4.43;;;1.23;;
78169;SDS011;67412;49.892;14.490;2023-08-30T02:05:19;3.67;;;1.52;;
78169;SDS011;67412;49.892;14.490;2023-08-30T02:07:54;3.13;;;1.50;;
78169;SDS011;67412;49.892;14.490;2023-08-30T02:10:24;3.78;;;1.40;;
78169;SDS011;67412;49.892;14.490;2023-08-30T02:12:53;2.35;;;1.23;;
78169;SDS011;67412;49.892;14.490;2023-08-30T02:15:21;2.40;;;1.20;;
78169;SDS011;67412;49.892;14.490;2023-08-30T02:17:48;2.53;;;1.00;;
78169;SDS011;67412;49.892;14.490;2023-08-30T02:20:14;3.22;;;1.08;;
78169;SDS011;67412;49.892;14.490;2023-08-30T02:22:39;4.45;;;1.30;;
78169;SDS011;67412;49.892;14.490;2023-08-30T02:25:05;5.82;;;1.60;;
78169;SDS011;67412;49.892;14.490;2023-08-30T02:27:31;1.70;;;1.02;;
78169;SDS011;67412;49.892;14.490;2023-08-30T02:29:57;2.95;;;1.38;;
78169;SDS011;67412;49.892;14.490;2023-08-30T02:32:23;3.08;;;1.23;;
78169;SDS011;67412;49.892;14.490;2023-08-30T02:34:49;2.80;;;1.23;;
78169;SDS011;67412;49.892;14.490;2023-08-30T02:37:16;3.15;;;1.20;;
78169;SDS011;67412;49.892;14.490;2023-08-30T02:39:42;2.80;;;1.10;;
78169;SDS011;67412;49.892;14.490;2023-08-30T02:42:07;3.30;;;1.20;;
78169;SDS011;67412;49.892;14.490;2023-08-30T02:44:32;2.30;;;1.05;;
78169;SDS011;67412;49.892;14.490;2023-08-30T02:46:58;2.40;;;1.20;;
78169;SDS011;67412;49.892;14.490;2023-08-30T02:49:23;3.70;;;1.42;;
78169;SDS011;67412;49.892;14.490;2023-08-30T02:51:48;3.80;;;1.17;;
78169;SDS011;67412;49.892;14.490;2023-08-30T02:54:14;3.50;;;1.23;;
78169;SDS011;67412;49.892;14.490;2023-08-30T02:56:42;3.80;;;1.23;;
78169;SDS011;67412;49.892;14.490;2023-08-30T02:59:10;1.83;;;1.05;;
78169;SDS011;67412;49.892;14.490;2023-08-30T03:01:35;2.05;;;0.95;;
78169;SDS011;67412;49.892;14.490;2023-08-30T03:04:01;2.47;;;1.20;;
78169;SDS011;67412;49.892;14.490;2023-08-30T03:06:26;3.00;;;1.20;;
78169;SDS011;67412;49.892;14.490;2023-08-30T03:08:55;3.10;;;1.20;;
78169;SDS011;67412;49.892;14.490;2023-08-30T03:11:20;3.10;;;0.93;;
78169;SDS011;67412;49.892;14.490;2023-08-30T03:13:45;4.38;;;1.15;;
78169;SDS011;67412;49.892;14.490;2023-08-30T03:18:36;8.68;;;1.58;;
78169;SDS011;67412;49.892;14.490;2023-08-30T03:21:02;2.17;;;1.00;;
78169;SDS011;67412;49.892;14.490;2023-08-30T03:23:27;3.17;;;1.17;;
78169;SDS011;67412;49.892;14.490;2023-08-30T03:25:53;1.80;;;0.95;;
78169;SDS011;67412;49.892;14.490;2023-08-30T03:28:18;3.25;;;1.33;;
78169;SDS011;67412;49.892;14.490;2023-08-30T03:30:43;2.47;;;1.10;;
78169;SDS011;67412;49.892;14.490;2023-08-30T03:33:09;3.13;;;1.00;;
78169;SDS011;67412;49.892;14.490;2023-08-30T03:35:34;3.13;;;1.08;;
78169;SDS011;67412;49.892;14.490;2023-08-30T03:38:00;2.70;;;1.20;;
78169;SDS011;67412;49.892;14.490;2023-08-30T03:40:25;2.70;;;1.10;;
78169;SDS011;67412;49.892;14.490;2023-08-30T03:42:52;2.65;;;1.10;;
78169;SDS011;67412;49.892;14.490;2023-08-30T03:45:17;4.82;;;1.13;;
78169;SDS011;67412;49.892;14.490;2023-08-30T03:47:43;3.25;;;1.30;;
78169;SDS011;67412;49.892;14.490;2023-08-30T03:50:08;3.47;;;1.30;;
78169;SDS011;67412;49.892;14.490;2023-08-30T03:52:34;2.28;;;1.05;;
78169;SDS011;67412;49.892;14.490;2023-08-30T03:55:00;2.38;;;1.08;;
78169;SDS011;67412;49.892;14.490;2023-08-30T03:57:25;2.13;;;1.13;;
78169;SDS011;67412;49.892;14.490;2023-08-30T03:59:51;3.35;;;1.30;;
78169;SDS011;67412;49.892;14.490;2023-08-30T04:02:16;2.83;;;1.10;;
78169;SDS011;67412;49.892;14.490;2023-08-30T04:04:41;3.05;;;1.10;;
78169;SDS011;67412;49.892;14.490;2023-08-30T04:07:07;3.70;;;1.30;;
78169;SDS011;67412;49.892;14.490;2023-08-30T04:09:32;7.07;;;1.40;;
78169;SDS011;67412;49.892;14.490;2023-08-30T04:11:57;3.83;;;1.20;;
78169;SDS011;67412;49.892;14.490;2023-08-30T04:14:24;2.65;;;1.08;;
78169;SDS011;67412;49.892;14.490;2023-08-30T04:16:49;2.30;;;1.17;;
78169;SDS011;67412;49.892;14.490;2023-08-30T04:19:14;4.22;;;1.50;;
78169;SDS011;67412;49.892;14.490;2023-08-30T04:21:40;2.15;;;1.20;;
78169;SDS011;67412;49.892;14.490;2023-08-30T04:24:05;3.83;;;1.42;;
78169;SDS011;67412;49.892;14.490;2023-08-30T04:26:31;3.95;;;1.40;;
78169;SDS011;67412;49.892;14.490;2023-08-30T04:28:56;3.38;;;1.48;;
78169;SDS011;67412;49.892;14.490;2023-08-30T04:31:21;4.03;;;1.80;;
78169;SDS011;67412;49.892;14.490;2023-08-30T04:33:47;4.28;;;1.30;;
78169;SDS011;67412;49.892;14.490;2023-08-30T04:36:12;4.72;;;1.60;;
78169;SDS011;67412;49.892;14.490;2023-08-30T04:38:37;3.85;;;1.40;;
78169;SDS011;67412;49.892;14.490;2023-08-30T04:41:02;4.88;;;1.50;;
78169;SDS011;67412;49.892;14.490;2023-08-30T04:43:28;3.33;;;1.38;;
78169;SDS011;67412;49.892;14.490;2023-08-30T04:45:54;4.07;;;1.60;;
78169;SDS011;67412;49.892;14.490;2023-08-30T04:48:19;1.95;;;1.02;;
78169;SDS011;67412;49.892;14.490;2023-08-30T04:50:44;3.45;;;1.17;;
78169;SDS011;67412;49.892;14.490;2023-08-30T04:53:10;5.45;;;1.27;;
78169;SDS011;67412;49.892;14.490;2023-08-30T04:55:35;4.43;;;1.30;;
78169;SDS011;67412;49.892;14.490;2023-08-30T04:58:00;3.65;;;1.40;;
78169;SDS011;67412;49.892;14.490;2023-08-30T05:00:26;4.18;;;1.30;;
78169;SDS011;67412;49.892;14.490;2023-08-30T05:02:51;2.30;;;1.35;;
78169;SDS011;67412;49.892;14.490;2023-08-30T05:05:16;5.47;;;1.60;;
78169;SDS011;67412;49.892;14.490;2023-08-30T05:07:42;1.85;;;1.20;;
78169;SDS011;67412;49.892;14.490;2023-08-30T05:10:07;6.68;;;1.50;;
78169;SDS011;67412;49.892;14.490;2023-08-30T05:12:34;4.20;;;1.48;;
78169;SDS011;67412;49.892;14.490;2023-08-30T05:15:00;3.03;;;1.60;;
78169;SDS011;67412;49.892;14.490;2023-08-30T05:17:25;3.45;;;1.35;;
78169;SDS011;67412;49.892;14.490;2023-08-30T05:19:53;4.35;;;1.40;;
78169;SDS011;67412;49.892;14.490;2023-08-30T05:22:18;3.25;;;1.73;;
78169;SDS011;67412;49.892;14.490;2023-08-30T05:24:44;4.43;;;1.60;;
78169;SDS011;67412;49.892;14.490;2023-08-30T05:27:09;4.80;;;2.05;;
78169;SDS011;67412;49.892;14.490;2023-08-30T05:29:36;4.72;;;1.73;;
78169;SDS011;67412;49.892;14.490;2023-08-30T05:32:01;5.85;;;1.70;;
78169;SDS011;67412;49.892;14.490;2023-08-30T05:34:27;4.18;;;1.33;;
78169;SDS011;67412;49.892;14.490;2023-08-30T05:36:53;3.42;;;1.52;;
78169;SDS011;67412;49.892;14.490;2023-08-30T05:39:18;4.97;;;1.70;;
78169;SDS011;67412;49.892;14.490;2023-08-30T05:41:44;2.92;;;1.40;;
78169;SDS011;67412;49.892;14.490;2023-08-30T05:44:09;3.17;;;1.10;;
78169;SDS011;67412;49.892;14.490;2023-08-30T05:46:35;4.50;;;1.40;;
78169;SDS011;67412;49.892;14.490;2023-08-30T05:49:00;4.70;;;1.70;;
78169;SDS011;67412;49.892;14.490;2023-08-30T05:51:28;2.38;;;1.25;;
78169;SDS011;67412;49.892;14.490;2023-08-30T05:53:53;3.10;;;1.40;;
78169;SDS011;67412;49.892;14.490;2023-08-30T05:56:18;3.10;;;1.65;;
78169;SDS011;67412;49.892;14.490;2023-08-30T05:58:44;3.28;;;1.38;;
78169;SDS011;67412;49.892;14.490;2023-08-30T06:01:09;3.08;;;1.42;;
78169;SDS011;67412;49.892;14.490;2023-08-30T06:03:34;3.78;;;1.80;;
78169;SDS011;67412;49.892;14.490;2023-08-30T06:06:00;5.40;;;1.60;;
78169;SDS011;67412;49.892;14.490;2023-08-30T06:08:26;4.72;;;1.60;;
78169;SDS011;67412;49.892;14.490;2023-08-30T06:10:51;4.00;;;1.60;;
78169;SDS011;67412;49.892;14.490;2023-08-30T06:13:17;6.05;;;1.70;;
78169;SDS011;67412;49.892;14.490;2023-08-30T06:15:42;6.82;;;2.05;;
78169;SDS011;67412;49.892;14.490;2023-08-30T06:18:09;3.17;;;1.38;;
78169;SDS011;67412;49.892;14.490;2023-08-30T06:20:35;4.47;;;1.80;;
78169;SDS011;67412;49.892;14.490;2023-08-30T06:23:02;3.17;;;1.58;;
78169;SDS011;67412;49.892;14.490;2023-08-30T06:25:28;5.68;;;2.03;;
78169;SDS011;67412;49.892;14.490;2023-08-30T06:27:57;7.97;;;2.78;;
78169;SDS011;67412;49.892;14.490;2023-08-30T06:30:27;4.97;;;1.85;;
78169;SDS011;67412;49.892;14.490;2023-08-30T06:32:53;4.53;;;1.70;;
78169;SDS011;67412;49.892;14.490;2023-08-30T06:35:18;4.93;;;1.88;;
78169;SDS011;67412;49.892;14.490;2023-08-30T06:37:44;5.82;;;2.00;;
78169;SDS011;67412;49.892;14.490;2023-08-30T06:40:09;5.53;;;2.13;;
78169;SDS011;67412;49.892;14.490;2023-08-30T06:42:35;6.70;;;2.55;;
78169;SDS011;67412;49.892;14.490;2023-08-30T06:45:01;6.47;;;2.13;;
78169;SDS011;67412;49.892;14.490;2023-08-30T06:47:27;8.90;;;2.17;;
78169;SDS011;67412;49.892;14.490;2023-08-30T06:49:52;6.05;;;2.10;;
78169;SDS011;67412;49.892;14.490;2023-08-30T06:52:18;6.15;;;2.33;;
78169;SDS011;67412;49.892;14.490;2023-08-30T06:54:43;4.63;;;1.52;;
78169;SDS011;67412;49.892;14.490;2023-08-30T06:57:08;4.57;;;1.73;;
78169;SDS011;67412;49.892;14.490;2023-08-30T06:59:34;7.75;;;2.20;;
78169;SDS011;67412;49.892;14.490;2023-08-30T07:01:59;5.88;;;2.20;;
78169;SDS011;67412;49.892;14.490;2023-08-30T07:04:24;6.90;;;2.38;;
78169;SDS011;67412;49.892;14.490;2023-08-30T07:06:50;4.93;;;2.05;;
78169;SDS011;67412;49.892;14.490;2023-08-30T07:09:16;6.75;;;2.40;;
78169;SDS011;67412;49.892;14.490;2023-08-30T07:11:44;5.03;;;2.08;;
78169;SDS011;67412;49.892;14.490;2023-08-30T07:14:10;6.88;;;2.50;;
78169;SDS011;67412;49.892;14.490;2023-08-30T07:16:37;5.40;;;2.10;;
78169;SDS011;67412;49.892;14.490;2023-08-30T07:19:03;8.82;;;2.80;;
78169;SDS011;67412;49.892;14.490;2023-08-30T07:21:28;6.35;;;3.10;;
78169;SDS011;67412;49.892;14.490;2023-08-30T07:23:54;4.90;;;2.13;;
78169;SDS011;67412;49.892;14.490;2023-08-30T07:26:19;5.07;;;1.95;;
78169;SDS011;67412;49.892;14.490;2023-08-30T07:28:45;6.88;;;2.38;;
78169;SDS011;67412;49.892;14.490;2023-08-30T07:31:10;5.63;;;2.03;;
78169;SDS011;67412;49.892;14.490;2023-08-30T07:33:39;6.85;;;2.42;;
78169;SDS011;67412;49.892;14.490;2023-08-30T07:36:04;4.22;;;2.00;;
78169;SDS011;67412;49.892;14.490;2023-08-30T07:38:30;7.90;;;2.42;;
78169;SDS011;67412;49.892;14.490;2023-08-30T07:40:55;8.15;;;2.65;;
78169;SDS011;67412;49.892;14.490;2023-08-30T07:43:21;6.28;;;1.80;;
78169;SDS011;67412;49.892;14.490;2023-08-30T07:45:46;4.65;;;2.03;;
78169;SDS011;67412;49.892;14.490;2023-08-30T07:48:12;6.18;;;2.55;;
78169;SDS011;67412;49.892;14.490;2023-08-30T07:50:37;5.60;;;2.30;;
78169;SDS011;67412;49.892;14.490;2023-08-30T07:53:03;6.97;;;2.55;;
78169;SDS011;67412;49.892;14.490;2023-08-30T07:55:28;4.28;;;1.90;;
78169;SDS011;67412;49.892;14.490;2023-08-30T07:57:53;8.40;;;2.83;;
78169;SDS011;67412;49.892;14.490;2023-08-30T08:00:19;5.93;;;2.30;;
78169;SDS011;67412;49.892;14.490;2023-08-30T08:02:44;8.20;;;3.08;;
78169;SDS011;67412;49.892;14.490;2023-08-30T08:05:09;6.50;;;2.60;;
78169;SDS011;67412;49.892;14.490;2023-08-30T08:07:37;7.05;;;2.58;;
78169;SDS011;67412;49.892;14.490;2023-08-30T08:10:04;5.78;;;2.60;;
78169;SDS011;67412;49.892;14.490;2023-08-30T08:12:30;7.38;;;3.17;;
78169;SDS011;67412;49.892;14.490;2023-08-30T08:14:55;8.77;;;3.53;;
78169;SDS011;67412;49.892;14.490;2023-08-30T08:17:20;6.00;;;2.20;;
78169;SDS011;67412;49.892;14.490;2023-08-30T08:19:46;6.78;;;2.65;;
78169;SDS011;67412;49.892;14.490;2023-08-30T08:22:11;9.15;;;2.97;;
78169;SDS011;67412;49.892;14.490;2023-08-30T08:24:36;6.60;;;2.60;;
78169;SDS011;67412;49.892;14.490;2023-08-30T08:27:02;7.60;;;2.72;;
78169;SDS011;67412;49.892;14.490;2023-08-30T08:29:27;7.68;;;3.00;;
78169;SDS011;67412;49.892;14.490;2023-08-30T08:31:53;8.23;;;3.05;;
78169;SDS011;67412;49.892;14.490;2023-08-30T08:34:19;7.57;;;3.35;;
78169;SDS011;67412;49.892;14.490;2023-08-30T08:36:44;7.97;;;3.55;;
78169;SDS011;67412;49.892;14.490;2023-08-30T08:39:09;8.18;;;3.22;;
78169;SDS011;67412;49.892;14.490;2023-08-30T08:41:44;8.52;;;3.28;;
78169;SDS011;67412;49.892;14.490;2023-08-30T08:44:10;6.50;;;2.90;;
78169;SDS011;67412;49.892;14.490;2023-08-30T08:46:37;7.65;;;3.10;;
78169;SDS011;67412;49.892;14.490;2023-08-30T08:49:16;6.90;;;3.00;;
78169;SDS011;67412;49.892;14.490;2023-08-30T08:51:42;6.43;;;2.78;;
78169;SDS011;67412;49.892;14.490;2023-08-30T08:54:09;6.15;;;2.55;;
78169;SDS011;67412;49.892;14.490;2023-08-30T08:56:35;7.05;;;3.20;;
78169;SDS011;67412;49.892;14.490;2023-08-30T08:59:02;8.13;;;2.88;;
78169;SDS011;67412;49.892;14.490;2023-08-30T09:01:28;6.80;;;3.30;;
78169;SDS011;67412;49.892;14.490;2023-08-30T09:03:53;6.88;;;2.88;;
78169;SDS011;67412;49.892;14.490;2023-08-30T09:06:19;6.63;;;2.80;;
78169;SDS011;67412;49.892;14.490;2023-08-30T09:08:46;6.53;;;2.33;;
78169;SDS011;67412;49.892;14.490;2023-08-30T09:11:12;6.72;;;2.85;;
78169;SDS011;67412;49.892;14.490;2023-08-30T09:13:37;13.82;;;3.30;;
78169;SDS011;67412;49.892;14.490;2023-08-30T09:16:02;7.68;;;3.15;;
78169;SDS011;67412;49.892;14.490;2023-08-30T09:18:36;6.82;;;3.00;;
78169;SDS011;67412;49.892;14.490;2023-08-30T09:21:07;7.43;;;2.80;;
78169;SDS011;67412;49.892;14.490;2023-08-30T09:23:33;5.68;;;2.33;;
78169;SDS011;67412;49.892;14.490;2023-08-30T09:25:59;6.85;;;2.70;;
78169;SDS011;67412;49.892;14.490;2023-08-30T09:28:24;6.30;;;3.08;;
78169;SDS011;67412;49.892;14.490;2023-08-30T09:30:50;7.18;;;2.92;;
78169;SDS011;67412;49.892;14.490;2023-08-30T09:33:22;7.20;;;2.95;;
78169;SDS011;67412;49.892;14.490;2023-08-30T09:35:49;5.95;;;2.58;;
78169;SDS011;67412;49.892;14.490;2023-08-30T09:38:20;6.18;;;2.58;;
78169;SDS011;67412;49.892;14.490;2023-08-30T09:40:46;6.75;;;2.90;;
78169;SDS011;67412;49.892;14.490;2023-08-30T09:43:11;8.65;;;3.53;;
78169;SDS011;67412;49.892;14.490;2023-08-30T09:45:37;7.85;;;3.25;;
78169;SDS011;67412;49.892;14.490;2023-08-30T09:48:03;8.15;;;3.05;;
78169;SDS011;67412;49.892;14.490;2023-08-30T09:50:31;6.50;;;2.90;;
78169;SDS011;67412;49.892;14.490;2023-08-30T09:53:00;9.25;;;3.67;;
78169;SDS011;67412;49.892;14.490;2023-08-30T09:55:32;6.55;;;2.78;;
78169;SDS011;67412;49.892;14.490;2023-08-30T09:57:58;7.68;;;3.35;;
78169;SDS011;67412;49.892;14.490;2023-08-30T10:00:24;8.43;;;3.20;;
78169;SDS011;67412;49.892;14.490;2023-08-30T10:02:50;7.38;;;3.28;;
78169;SDS011;67412;49.892;14.490;2023-08-30T10:05:15;7.28;;;3.20;;
78169;SDS011;67412;49.892;14.490;2023-08-30T10:07:41;8.88;;;3.50;;
78169;SDS011;67412;49.892;14.490;2023-08-30T10:10:09;6.75;;;3.38;;
78169;SDS011;67412;49.892;14.490;2023-08-30T10:12:35;7.28;;;3.20;;
78169;SDS011;67412;49.892;14.490;2023-08-30T10:15:01;8.65;;;3.30;;
78169;SDS011;67412;49.892;14.490;2023-08-30T10:17:27;7.30;;;3.58;;
78169;SDS011;67412;49.892;14.490;2023-08-30T10:19:53;7.43;;;2.90;;
78169;SDS011;67412;49.892;14.490;2023-08-30T10:22:20;7.47;;;2.83;;
78169;SDS011;67412;49.892;14.490;2023-08-30T10:27:16;7.82;;;3.63;;
78169;SDS011;67412;49.892;14.490;2023-08-30T10:29:42;7.68;;;3.25;;
78169;SDS011;67412;49.892;14.490;2023-08-30T10:34:35;7.15;;;3.10;;
78169;SDS011;67412;49.892;14.490;2023-08-30T10:39:38;6.57;;;3.03;;
78169;SDS011;67412;49.892;14.490;2023-08-30T10:42:11;6.72;;;2.90;;
78169;SDS011;67412;49.892;14.490;2023-08-30T10:44:49;7.25;;;3.17;;
78169;SDS011;67412;49.892;14.490;2023-08-30T10:47:28;7.45;;;3.45;;
78169;SDS011;67412;49.892;14.490;2023-08-30T10:49:55;6.22;;;2.92;;
78169;SDS011;67412;49.892;14.490;2023-08-30T10:52:22;6.95;;;3.20;;
78169;SDS011;67412;49.892;14.490;2023-08-30T10:54:49;6.75;;;3.28;;
78169;SDS011;67412;49.892;14.490;2023-08-30T10:57:15;8.65;;;3.38;;
78169;SDS011;67412;49.892;14.490;2023-08-30T11:00:03;8.50;;;3.55;;
78169;SDS011;67412;49.892;14.490;2023-08-30T11:04:57;6.72;;;3.30;;
78169;SDS011;67412;49.892;14.490;2023-08-30T11:07:24;6.30;;;3.00;;
78169;SDS011;67412;49.892;14.490;2023-08-30T11:09:51;7.13;;;3.30;;
78169;SDS011;67412;49.892;14.490;2023-08-30T11:12:17;7.57;;;3.70;;
78169;SDS011;67412;49.892;14.490;2023-08-30T11:14:43;6.55;;;3.38;;
78169;SDS011;67412;49.892;14.490;2023-08-30T11:17:12;9.70;;;3.45;;
78169;SDS011;67412;49.892;14.490;2023-08-30T11:19:37;7.20;;;3.45;;
78169;SDS011;67412;49.892;14.490;2023-08-30T11:22:02;9.23;;;3.30;;
78169;SDS011;67412;49.892;14.490;2023-08-30T11:24:28;8.48;;;3.85;;
78169;SDS011;67412;49.892;14.490;2023-08-30T11:26:54;8.00;;;3.60;;
78169;SDS011;67412;49.892;14.490;2023-08-30T11:29:19;6.65;;;3.13;;
78169;SDS011;67412;49.892;14.490;2023-08-30T11:31:45;7.00;;;3.33;;
78169;SDS011;67412;49.892;14.490;2023-08-30T11:34:11;7.65;;;3.20;;
78169;SDS011;67412;49.892;14.490;2023-08-30T11:36:37;7.28;;;3.10;;
78169;SDS011;67412;49.892;14.490;2023-08-30T11:39:03;6.95;;;3.30;;
78169;SDS011;67412;49.892;14.490;2023-08-30T11:41:29;8.00;;;3.63;;
78169;SDS011;67412;49.892;14.490;2023-08-30T11:43:56;6.90;;;2.97;;
78169;SDS011;67412;49.892;14.490;2023-08-30T11:46:23;7.53;;;3.53;;
78169;SDS011;67412;49.892;14.490;2023-08-30T11:48:49;6.50;;;2.95;;
78169;SDS011;67412;49.892;14.490;2023-08-30T11:51:16;7.00;;;3.20;;
78169;SDS011;67412;49.892;14.490;2023-08-30T11:53:43;7.18;;;3.05;;
78169;SDS011;67412;49.892;14.490;2023-08-30T11:56:09;6.78;;;2.95;;
78169;SDS011;67412;49.892;14.490;2023-08-30T11:58:35;6.53;;;3.20;;
78169;SDS011;67412;49.892;14.490;2023-08-30T12:01:01;5.72;;;2.58;;
78169;SDS011;67412;49.892;14.490;2023-08-30T12:03:28;6.72;;;3.42;;
78169;SDS011;67412;49.892;14.490;2023-08-30T12:05:54;8.18;;;2.92;;
78169;SDS011;67412;49.892;14.490;2023-08-30T12:08:20;6.43;;;3.00;;
78169;SDS011;67412;49.892;14.490;2023-08-30T12:10:46;7.97;;;3.00;;
78169;SDS011;67412;49.892;14.490;2023-08-30T12:15:59;6.65;;;3.45;;
78169;SDS011;67412;49.892;14.490;2023-08-30T12:18:31;7.43;;;3.80;;
78169;SDS011;67412;49.892;14.490;2023-08-30T12:23:25;6.15;;;3.08;;
78169;SDS011;67412;49.892;14.490;2023-08-30T12:28:23;6.10;;;2.78;;
78169;SDS011;67412;49.892;14.490;2023-08-30T12:30:48;6.03;;;2.80;;
78169;SDS011;67412;49.892;14.490;2023-08-30T12:33:16;7.35;;;3.17;;
78169;SDS011;67412;49.892;14.490;2023-08-30T12:35:41;6.28;;;2.90;;
78169;SDS011;67412;49.892;14.490;2023-08-30T12:38:06;6.03;;;2.60;;
78169;SDS011;67412;49.892;14.490;2023-08-30T12:40:32;6.10;;;2.85;;
78169;SDS011;67412;49.892;14.490;2023-08-30T12:42:57;6.45;;;2.92;;
78169;SDS011;67412;49.892;14.490;2023-08-30T12:45:23;6.15;;;2.80;;
78169;SDS011;67412;49.892;14.490;2023-08-30T12:47:48;7.55;;;3.00;;
78169;SDS011;67412;49.892;14.490;2023-08-30T12:50:13;7.10;;;3.25;;
78169;SDS011;67412;49.892;14.490;2023-08-30T12:52:38;5.43;;;2.78;;
78169;SDS011;67412;49.892;14.490;2023-08-30T12:55:04;6.40;;;3.33;;
78169;SDS011;67412;49.892;14.490;2023-08-30T12:57:29;6.50;;;3.33;;
78169;SDS011;67412;49.892;14.490;2023-08-30T12:59:55;6.10;;;3.10;;
78169;SDS011;67412;49.892;14.490;2023-08-30T13:02:20;6.70;;;3.10;;
78169;SDS011;67412;49.892;14.490;2023-08-30T13:04:46;6.50;;;3.03;;
78169;SDS011;67412;49.892;14.490;2023-08-30T13:07:11;7.13;;;3.08;;
78169;SDS011;67412;49.892;14.490;2023-08-30T13:09:36;7.18;;;3.55;;
78169;SDS011;67412;49.892;14.490;2023-08-30T13:12:02;9.48;;;3.58;;
78169;SDS011;67412;49.892;14.490;2023-08-30T13:14:27;5.95;;;2.70;;
78169;SDS011;67412;49.892;14.490;2023-08-30T13:16:53;6.78;;;2.97;;
78169;SDS011;67412;49.892;14.490;2023-08-30T13:19:18;9.20;;;3.00;;
78169;SDS011;67412;49.892;14.490;2023-08-30T13:21:43;5.82;;;2.70;;
78169;SDS011;67412;49.892;14.490;2023-08-30T13:24:09;5.93;;;3.10;;
78169;SDS011;67412;49.892;14.490;2023-08-30T13:26:34;6.22;;;2.88;;
78169;SDS011;67412;49.892;14.490;2023-08-30T13:28:59;6.13;;;2.70;;
78169;SDS011;67412;49.892;14.490;2023-08-30T13:31:27;6.47;;;3.03;;
78169;SDS011;67412;49.892;14.490;2023-08-30T13:33:52;5.03;;;2.78;;
78169;SDS011;67412;49.892;14.490;2023-08-30T13:36:17;6.35;;;3.00;;
78169;SDS011;67412;49.892;14.490;2023-08-30T13:38:43;5.03;;;2.40;;
78169;SDS011;67412;49.892;14.490;2023-08-30T13:41:08;5.50;;;2.60;;
78169;SDS011;67412;49.892;14.490;2023-08-30T13:43:33;6.15;;;2.85;;
78169;SDS011;67412;49.892;14.490;2023-08-30T13:45:59;6.60;;;2.93;;
78169;SDS011;67412;49.892;14.490;2023-08-30T13:48:24;7.63;;;2.67;;
78169;SDS011;67412;49.892;14.490;2023-08-30T13:50:50;5.80;;;2.80;;
78169;SDS011;67412;49.892;14.490;2023-08-30T13:53:15;6.63;;;2.70;;
78169;SDS011;67412;49.892;14.490;2023-08-30T13:55:44;6.13;;;2.92;;
78169;SDS011;67412;49.892;14.490;2023-08-30T13:58:10;4.60;;;2.30;;
78169;SDS011;67412;49.892;14.490;2023-08-30T14:00:36;7.75;;;2.83;;
78169;SDS011;67412;49.892;14.490;2023-08-30T14:03:02;6.90;;;2.40;;
78169;SDS011;67412;49.892;14.490;2023-08-30T14:05:27;5.47;;;2.55;;
78169;SDS011;67412;49.892;14.490;2023-08-30T14:07:53;4.63;;;2.38;;
78169;SDS011;67412;49.892;14.490;2023-08-30T14:10:18;6.85;;;2.83;;
78169;SDS011;67412;49.892;14.490;2023-08-30T14:12:44;5.57;;;2.50;;
78169;SDS011;67412;49.892;14.490;2023-08-30T14:15:09;5.00;;;2.30;;
78169;SDS011;67412;49.892;14.490;2023-08-30T14:17:34;5.60;;;2.55;;
78169;SDS011;67412;49.892;14.490;2023-08-30T14:20:00;5.55;;;2.60;;
78169;SDS011;67412;49.892;14.490;2023-08-30T14:22:26;5.45;;;2.40;;
78169;SDS011;67412;49.892;14.490;2023-08-30T14:24:51;6.38;;;2.85;;
78169;SDS011;67412;49.892;14.490;2023-08-30T14:27:16;6.35;;;2.88;;
78169;SDS011;67412;49.892;14.490;2023-08-30T14:29:42;7.15;;;3.05;;
78169;SDS011;67412;49.892;14.490;2023-08-30T14:32:07;5.60;;;2.60;;
78169;SDS011;67412;49.892;14.490;2023-08-30T14:34:32;6.03;;;2.67;;
78169;SDS011;67412;49.892;14.490;2023-08-30T14:36:58;5.57;;;3.03;;
78169;SDS011;67412;49.892;14.490;2023-08-30T14:39:23;6.93;;;2.78;;
78169;SDS011;67412;49.892;14.490;2023-08-30T14:41:48;5.75;;;3.03;;
78169;SDS011;67412;49.892;14.490;2023-08-30T14:44:14;5.85;;;3.08;;
78169;SDS011;67412;49.892;14.490;2023-08-30T14:46:39;6.22;;;3.05;;
78169;SDS011;67412;49.892;14.490;2023-08-30T14:49:04;6.03;;;2.88;;
78169;SDS011;67412;49.892;14.490;2023-08-30T14:51:30;7.15;;;3.10;;
78169;SDS011;67412;49.892;14.490;2023-08-30T14:53:55;6.82;;;3.20;;
78169;SDS011;67412;49.892;14.490;2023-08-30T14:56:20;7.28;;;3.22;;
78169;SDS011;67412;49.892;14.490;2023-08-30T14:58:45;6.40;;;3.20;;